Latest Coastal Weather Observations for Mardie

IDW60701

Issued at 2:15 pm WST Saturday 25 October 2014 (issued every 10 minutes, with the page automatically refreshed every 10 minutes)

About coastal observations | Map of coastal stations | Coastal observations for WA | Marine services | Other Formats
Station Details ID: 005008 Name: MARDIE Lat: -21.19 Lon: 115.98 Height: 11.0 m
Data from the previous 72 hours. | See also: Recent months at Mardie
Date/Time
WST
Temp

°C
Wind Pressure Rain
since 9am
mm
Weather Cloud Vis
km
Sea
Height
m
Swell
Dir
 
Speed
knots
Gust
knots
hPa Trend Height
m
Period
s
Dir
25/02:00pm 35.2 W 18 23 1012.7 - 0.0 - - - - - - -
25/01:30pm 36.5 W 16 22 1012.9 - 0.0 - - - - - - -
25/01:00pm 35.6 W 16 21 1013.2 - 0.0 - - - - - - -
25/12:30pm 35.5 W 15 19 1013.5 - 0.0 - - - - - - -
25/12:00pm 34.5 W 15 18 1014.0 - 0.0 - - - - - - -
25/11:30am 35.2 W 11 17 1014.3 - 0.0 - - - - - - -
25/11:00am 36.5 SSW 11 17 1014.6 - 0.0 - - - - - - -
25/10:30am 35.8 SSW 11 17 1014.9 - 0.0 - - - - - - -
25/10:00am 35.1 SW 11 16 1015.1 - 0.0 - - - - - - -
25/09:30am 33.6 SSW 9 15 1015.0 - 0.0 - - - - - - -
25/09:00am 31.6 SSW 10 14 1015.1 - 0.0 - - - - - - -
25/08:30am 29.4 SSW 9 12 1015.2 - 0.0 - - - - - - -
25/08:00am 27.7 SSW 10 13 1015.1 - 0.0 - - - - - - -
25/07:30am 25.8 SSW 10 13 1014.6 - 0.0 - - - - - - -
25/07:00am 23.4 SW 9 12 1014.7 - 0.0 - - - - - - -
25/06:30am 21.5 SW 6 8 1014.5 - 0.0 - - - - - - -
25/06:00am 20.5 SW 7 9 1014.0 - 0.0 - - - - - - -
25/05:30am 20.6 SW 6 8 1013.7 - 0.0 - - - - - - -
25/05:00am 21.0 SW 7 9 1013.5 - 0.0 - - - - - - -
25/04:30am 21.3 SW 7 9 1013.1 - 0.0 - - - - - - -
25/04:00am 21.6 SW 8 10 1012.7 - 0.0 - - - - - - -
25/03:30am 21.4 SW 7 8 1012.7 - 0.0 - - - - - - -
25/03:00am 22.0 SW 7 8 1012.5 - 0.0 - - - - - - -
25/02:30am 21.9 SW 6 7 1012.4 - 0.0 - - - - - - -
25/02:00am 21.9 SW 6 6 1012.4 - 0.0 - - - - - - -
25/01:30am 22.6 SW 4 5 1012.4 - 0.0 - - - - - - -
25/01:00am 23.1 SSW 5 7 1012.4 - 0.0 - - - - - - -
25/12:30am 23.8 SW 5 7 1012.6 - 0.0 - - - - - - -
25/12:00am 24.5 SW 5 7 1012.6 - 0.0 - - - - - - -
 
Date/Time
WST
Temp

°C
Wind Pressure Rain
since 9am
mm
Weather Cloud Vis
km
Sea
Height
m
Swell
Dir
 
Speed
knots
Gust
knots
hPa Trend Height
m
Period
s
Dir
24/11:30pm 25.0 SW 6 7 1012.7 - 0.0 - - - - - - -
24/11:00pm 25.5 SW 6 8 1012.8 - 0.0 - - - - - - -
24/10:30pm 26.3 SW 9 12 1012.7 - 0.0 - - - - - - -
24/10:00pm 26.6 WSW 10 15 1012.5 - 0.0 - - - - - - -
24/09:30pm 26.3 WSW 12 16 1012.2 - 0.0 - - - - - - -
24/09:00pm 26.0 W 13 18 1012.0 - 0.0 - - - - - - -
24/08:30pm 25.9 W 13 18 1011.9 - 0.0 - - - - - - -
24/08:00pm 26.2 W 13 19 1011.6 - 0.0 - - - - - - -
24/07:30pm 26.7 W 13 20 1011.2 - 0.0 - - - - - - -
24/07:00pm 27.2 W 14 18 1010.9 - 0.0 - - - - - - -
24/06:30pm 27.7 W 12 16 1010.4 - 0.0 - - - - - - -
24/06:00pm 29.0 W 14 19 1010.2 - 0.0 - - - - - - -
24/05:30pm 30.5 W 17 24 1009.9 - 0.0 - - - - - - -
24/05:00pm 30.5 W 16 23 1009.7 - 0.0 - - - - - - -
24/04:30pm 31.8 W 17 23 1009.5 - 0.0 - - - - - - -
24/04:00pm 33.4 W 15 22 1009.5 - 0.0 - - - - - - -
24/03:30pm 34.3 W 16 21 1009.6 - 0.0 - - - - - - -
24/03:00pm 34.1 W 14 19 1009.8 - 0.0 - - - - - - -
24/02:30pm 33.2 WNW 17 22 1010.1 - 0.0 - - - - - - -
24/02:00pm 34.4 WNW 14 19 1010.3 - 0.0 - - - - - - -
24/01:30pm 34.3 WNW 15 18 1010.6 - 0.0 - - - - - - -
24/01:00pm 35.2 W 13 16 1011.0 - 0.0 - - - - - - -
24/12:30pm 34.8 WNW 13 18 1011.2 - 0.0 - - - - - - -
24/12:00pm 35.5 W 12 17 1011.5 - 0.0 - - - - - - -
24/11:30am 34.3 W 12 16 1011.9 - 0.0 - - - - - - -
24/11:00am 33.9 W 9 12 1012.2 - 0.0 - - - - - - -
24/10:30am 34.0 W 7 10 1012.3 - 0.0 - - - - - - -
24/10:00am 32.4 WSW 7 11 1012.7 - 0.0 - - - - - - -
24/09:30am 31.6 SW 5 8 1012.6 - 0.0 - - - - - - -
24/09:00am 29.6 SW 4 8 1012.9 - 0.0 - - - - - - -
24/08:30am 27.4 SSW 5 8 1012.8 - 0.0 - - - - - - -
24/08:00am 25.7 SSW 7 10 1012.8 - 0.0 - - - - - - -
24/07:30am 23.9 SSW 8 11 1012.6 - 0.0 - - - - - - -
24/07:00am 22.4 SSW 7 10 1012.7 - 0.0 - - - - - - -
24/06:30am 20.7 SSW 5 7 1012.7 - 0.0 - - - - - - -
24/06:00am 19.8 SW 6 8 1012.2 - 0.0 - - - - - - -
24/05:30am 19.8 SW 6 8 1012.0 - 0.0 - - - - - - -
24/05:00am 20.4 SW 7 9 1011.5 - 0.0 - - - - - - -
24/04:30am 20.8 SW 7 10 1011.4 - 0.0 - - - - - - -
24/04:00am 20.5 SW 6 8 1011.5 - 0.0 - - - - - - -
24/03:30am 21.2 SW 8 10 1011.4 - 0.0 - - - - - - -
24/03:00am 21.2 SW 5 8 1011.4 - 0.0 - - - - - - -
24/02:30am 21.8 SW 7 9 1011.5 - 0.0 - - - - - - -
24/02:00am 21.8 SW 6 8 1011.6 - 0.0 - - - - - - -
24/01:30am 22.3 SW 7 9 1011.7 - 0.0 - - - - - - -
24/01:00am 23.1 SW 7 10 1011.9 - 0.0 - - - - - - -
24/12:30am 23.5 WSW 7 10 1012.0 - 0.0 - - - - - - -
24/12:00am 24.0 WSW 8 11 1012.3 - 0.0 - - - - - - -
 
Date/Time
WST
Temp

°C
Wind Pressure Rain
since 9am
mm
Weather Cloud Vis
km
Sea
Height
m
Swell
Dir
 
Speed
knots
Gust
knots
hPa Trend Height
m
Period
s
Dir
23/11:30pm 24.4 WSW 8 10 1012.5 - 0.0 - - - - - - -
23/11:00pm 24.9 WSW 9 11 1012.7 - 0.0 - - - - - - -
23/10:30pm 25.3 WSW 10 14 1012.8 - 0.0 - - - - - - -
23/10:00pm 25.8 WSW 11 14 1012.8 - 0.0 - - - - - - -
23/09:30pm 25.8 WSW 10 14 1012.8 - 0.0 - - - - - - -
23/09:00pm 25.9 W 11 15 1012.7 - 0.0 - - - - - - -
23/08:30pm 25.8 W 11 15 1012.4 - 0.0 - - - - - - -
23/08:00pm 25.7 W 12 17 1012.2 - 0.0 - - - - - - -
23/07:30pm 25.8 W 14 20 1012.0 - 0.0 - - - - - - -
23/07:00pm 26.1 W 14 20 1011.7 - 0.0 - - - - - - -
23/06:30pm 26.6 W 14 20 1011.4 - 0.0 - - - - - - -
23/06:00pm 27.2 W 16 21 1010.9 - 0.0 - - - - - - -
23/05:30pm 28.6 W 17 23 1010.6 - 0.0 - - - - - - -
23/05:00pm 29.8 W 20 26 1010.3 - 0.0 - - - - - - -
23/04:30pm 30.0 W 20 26 1010.2 - 0.0 - - - - - - -
23/04:00pm 31.2 W 17 22 1010.2 - 0.0 - - - - - - -
23/03:30pm 31.1 W 19 24 1010.2 - 0.0 - - - - - - -
23/03:00pm 32.9 W 17 23 1010.3 - 0.0 - - - - - - -
23/02:30pm 33.3 W 17 22 1010.7 - 0.0 - - - - - - -
23/02:00pm 34.1 W 15 19 1010.9 - 0.0 - - - - - - -
23/01:30pm 34.7 W 14 19 1011.1 - 0.0 - - - - - - -
23/01:00pm 36.5 SW 10 18 1011.4 - 0.0 - - - - - - -
23/12:30pm 36.8 SSW 11 17 1011.8 - 0.0 - - - - - - -
23/12:00pm 36.0 SSW 10 16 1012.2 - 0.0 - - - - - - -
23/11:30am 35.7 SSW 11 19 1012.5 - 0.0 - - - - - - -
23/11:00am 34.3 SW 10 15 1012.8 - 0.0 - - - - - - -
23/10:30am 33.5 SSW 15 18 1013.1 - 0.0 - - - - - - -
23/10:00am 32.4 S 12 18 1013.5 - 0.0 - - - - - - -
23/09:30am 31.0 SSW 14 18 1013.6 - 0.0 - - - - - - -
23/09:00am 29.7 SSW 12 17 1013.6 - 0.0 - - - - - - -
23/08:30am 28.5 SSW 14 18 1013.5 - 0.0 - - - - - - -
23/08:00am 26.9 SSW 13 17 1013.4 - 0.0 - - - - - - -
23/07:30am 25.3 SSW 14 17 1013.4 - 0.0 - - - - - - -
23/07:00am 24.2 SSW 13 17 1013.3 - 0.0 - - - - - - -
23/06:30am 23.2 SW 9 11 1013.0 - 0.0 - - - - - - -
23/06:00am 22.5 SSW 7 9 1012.8 - 0.0 - - - - - - -
23/05:30am 22.9 SSW 9 12 1012.7 - 0.0 - - - - - - -
23/05:00am 23.4 SSW 10 14 1012.5 - 0.0 - - - - - - -
23/04:30am 23.7 SSW 11 15 1012.2 - 0.0 - - - - - - -
23/04:00am 24.0 SW 12 17 1012.0 - 0.0 - - - - - - -
23/03:30am 24.3 SW 13 18 1011.8 - 0.0 - - - - - - -
23/03:00am 24.6 SW 14 20 1011.8 - 0.0 - - - - - - -
23/02:30am 25.2 WSW 10 14 1012.4 - 0.0 - - - - - - -
23/02:00am 25.6 WSW 8 11 1012.7 - 0.0 - - - - - - -
23/01:30am 25.9 WSW 8 10 1013.0 - 0.0 - - - - - - -
23/01:00am 26.5 SW 8 10 1013.3 - 0.0 - - - - - - -
23/12:30am 27.1 SSW 6 7 1013.4 - 0.0 - - - - - - -
23/12:00am 28.0 SW 8 11 1013.5 - 0.0 - - - - - - -
 
Date/Time
WST
Temp

°C
Wind Pressure Rain
since 9am
mm
Weather Cloud Vis
km
Sea
Height
m
Swell
Dir
 
Speed
knots
Gust
knots
hPa Trend Height
m
Period
s
Dir
22/11:30pm 28.3 SW 8 10 1013.6 - 0.0 - - - - - - -
22/11:00pm 28.8 SSW 9 11 1013.6 - 0.0 - - - - - - -
22/10:30pm 29.0 SSW 9 13 1013.7 - 0.0 - - - - - - -
22/10:00pm 29.6 SW 9 12 1013.6 - 0.0 - - - - - - -
22/09:30pm 30.1 SW 8 12 1013.6 - 0.0 - - - - - - -
22/09:00pm 31.0 SSW 9 14 1013.6 - 0.0 - - - - - - -
22/08:30pm 30.8 SW 9 13 1013.2 - 0.0 - - - - - - -
22/08:00pm 29.8 WSW 9 13 1013.0 - 0.0 - - - - - - -
22/07:30pm 29.3 WSW 9 12 1012.7 - 0.0 - - - - - - -
22/07:00pm 28.7 WSW 13 17 1012.2 - 0.0 - - - - - - -
22/06:30pm 28.4 W 11 14 1012.7 - 0.0 - - - - - - -
22/06:00pm 28.7 W 13 18 1012.6 - 0.0 - - - - - - -
22/05:30pm 29.6 W 13 19 1012.3 - 0.0 - - - - - - -
22/05:00pm 30.2 W 15 21 1012.0 - 0.0 - - - - - - -
22/04:30pm 31.6 W 15 19 1011.8 - 0.0 - - - - - - -
22/04:00pm 32.3 W 13 17 1011.5 - 0.0 - - - - - - -
22/03:30pm 33.4 W 16 21 1011.6 - 0.0 - - - - - - -
22/03:00pm 34.4 W 15 19 1011.5 - 0.0 - - - - - - -
22/02:30pm 34.5 W 16 22 1011.8 - 0.0 - - - - - - -

Other Formats:

Comma delimited format used in spreadsheet applications
http://www.bom.gov.au/fwo/IDW60701/IDW60701.94306.axf

JavaScript Object Notation format (JSON) in row-major order
http://www.bom.gov.au/fwo/IDW60701/IDW60701.94306.json